Time;durP1;ratioP1;P1;durP2;ratioP2;P2;SDS_P1;SDS_P2;PMS_P1;PMS_P2;Temp;Humidity;BMP_temperature;BMP_pressure;BME280_temperature;BME280_humidity;BME280_pressure;Samples;Min_cycle;Max_cycle;Signal;HPM_P1;HPM_P2
2022/01/24 00:01:19;;;;;;;17.63;10.23;;;;;;;0.11;60.32;102080.06;5054899;28;20171;-83
2022/01/24 00:03:45;;;;;;;24.27;11.13;;;;;;;-0.13;59.65;102045.34;5055519;28;20186;-83
2022/01/24 00:06:14;;;;;;;20.87;10.80;;;;;;;-0.03;60.38;102070.41;5054996;28;20190;-83
2022/01/24 00:08:39;;;;;;;17.13;10.70;;;;;;;0.03;60.24;102085.53;5053671;28;20179;-83
2022/01/24 00:11:13;;;;;;;26.77;11.67;;;;;;;0.07;59.71;102096.34;5055528;28;20182;-83
2022/01/24 00:26:54;;;;;;;22.67;11.60;;;;;;;-0.36;61.22;102044.31;5055358;28;20166;-83
2022/01/24 00:29:20;;;;;;;20.20;12.10;;;;;;;-0.02;61.26;102107.50;5055624;28;20179;-81
2022/01/24 00:31:47;;;;;;;30.47;13.77;;;;;;;-0.06;61.94;102102.69;5056061;28;20631;-84
2022/01/24 00:34:14;;;;;;;44.37;15.20;;;;;;;-0.76;62.35;101985.25;5054550;28;20248;-83
2022/01/24 00:36:40;;;;;;;35.80;13.80;;;;;;;-0.11;62.75;102101.94;5054678;28;20182;-84
2022/01/24 00:39:06;;;;;;;33.27;14.10;;;;;;;-0.49;63.24;102044.00;5052900;28;20274;-82
2022/01/24 00:41:54;;;;;;;30.83;12.80;;;;;;;-0.05;63.12;102128.09;5053654;28;20172;-81
2022/01/24 00:46:56;;;;;;;23.83;10.90;;;;;;;-0.07;61.39;102126.03;5054308;28;20171;-83
2022/01/24 00:54:53;;;;;;;22.43;11.87;;;;;;;-0.03;60.98;102131.78;5054172;28;20226;-83
2022/01/24 00:57:19;;;;;;;24.20;11.77;;;;;;;-0.04;61.68;102137.50;5054077;28;20182;-83
2022/01/24 00:59:46;;;;;;;23.43;11.43;;;;;;;-0.19;61.67;102106.47;5054342;28;20175;-84
2022/01/24 01:02:12;;;;;;;24.23;11.87;;;;;;;-0.11;61.92;102121.19;5054327;28;20175;-81
2022/01/24 01:18:17;;;;;;;19.37;10.63;;;;;;;-0.10;61.05;102136.53;5080217;28;20231;-79
2022/01/24 01:23:29;;;;;;;21.73;10.93;;;;;;;-0.15;61.35;102139.03;5080042;28;20179;-82
2022/01/24 01:25:57;;;;;;;22.90;11.47;;;;;;;-0.17;61.79;102136.25;5074351;28;20183;-82
2022/01/24 01:28:24;;;;;;;21.90;12.07;;;;;;;-0.18;62.18;102134.44;5078066;28;20270;-82
2022/01/24 01:30:53;;;;;;;21.50;11.60;;;;;;;-0.24;62.19;102128.44;5078448;28;20159;-81
2022/01/24 01:57:52;;;;;;;25.93;10.87;;;;;;;0.04;58.03;102147.88;5069361;28;20171;-81
2022/01/24 02:00:18;;;;;;;22.60;10.77;;;;;;;0.06;57.90;102149.91;5068965;28;20251;-81
2022/01/24 02:02:47;;;;;;;22.83;11.30;;;;;;;0.08;57.93;102152.69;5066909;28;20171;-82
2022/01/24 02:05:14;;;;;;;20.53;10.93;;;;;;;0.05;58.26;102154.72;5064602;28;20175;-81
2022/01/24 02:07:47;;;;;;;19.33;10.50;;;;;;;-0.09;58.33;102129.94;5064983;28;20178;-80
2022/01/24 02:10:13;;;;;;;21.13;10.43;;;;;;;0.03;58.38;102141.88;5065346;28;20245;-80
2022/01/24 02:12:39;;;;;;;22.33;10.67;;;;;;;0.05;57.63;102153.13;5065202;28;20710;-81
2022/01/24 02:15:05;;;;;;;34.17;11.93;;;;;;;-0.06;57.68;102138.88;5064056;28;20200;-80
2022/01/24 02:18:29;;;;;;;23.70;11.73;;;;;;;0.02;57.73;102157.69;5063511;28;20179;-82
2022/01/24 02:25:45;;;;;;;20.00;10.20;;;;;;;0.08;56.76;102163.69;5054650;28;20194;-80
2022/01/24 02:28:13;;;;;;;23.77;10.70;;;;;;;0.09;56.57;102172.16;5054565;28;20647;-82
2022/01/24 02:30:55;;;;;;;26.93;11.17;;;;;;;0.13;56.27;102170.38;5055716;28;20258;-81
2022/01/24 02:33:21;;;;;;;24.87;11.47;;;;;;;0.14;55.79;102182.28;5059470;28;20234;-82
2022/01/24 02:35:47;;;;;;;25.67;11.97;;;;;;;0.13;55.78;102187.09;5062428;28;20265;-82
2022/01/24 02:49:08;;;;;;;22.83;10.47;;;;;;;-0.20;55.59;102148.38;5067867;28;20173;-81
2022/01/24 02:51:51;;;;;;;31.90;11.63;;;;;;;-0.24;56.02;102139.44;5064439;28;20179;-82
2022/01/24 02:54:31;;;;;;;22.73;10.83;;;;;;;-0.29;55.27;102135.25;5067803;28;20198;-81
2022/01/24 02:56:57;;;;;;;30.93;10.67;;;;;;;-0.02;55.98;102195.72;5058353;28;20163;-82
2022/01/24 02:59:23;;;;;;;35.43;12.67;;;;;;;-0.02;55.78;102198.22;5052247;28;20172;-81
2022/01/24 03:01:48;;;;;;;29.97;11.83;;;;;;;0.01;55.92;102207.88;5051437;28;20175;-81
2022/01/24 03:04:16;;;;;;;22.17;10.70;;;;;;;-0.01;55.55;102195.94;5051169;28;20572;-82
2022/01/24 03:06:41;;;;;;;22.40;10.53;;;;;;;0.09;55.15;102207.44;5051567;28;20225;-82
2022/01/24 03:09:08;;;;;;;21.07;11.20;;;;;;;-0.15;54.69;102162.63;5051202;28;20593;-81
2022/01/24 03:14:15;;;;;;;22.53;10.17;;;;;;;0.11;54.84;102216.19;5050339;28;20230;-81
2022/01/24 03:16:45;;;;;;;34.20;10.40;;;;;;;-0.06;54.29;102191.78;5052673;28;20249;-81
2022/01/24 03:19:11;;;;;;;19.00;8.80;;;;;;;0.13;53.91;102217.34;5051625;28;20179;-81
2022/01/24 03:21:36;;;;;;;16.40;8.93;;;;;;;0.13;54.51;102220.78;5052700;28;20261;-82
2022/01/24 03:24:02;;;;;;;19.93;8.73;;;;;;;0.15;53.92;102226.97;5052623;28;20179;-84
2022/01/24 03:26:28;;;;;;;18.20;9.50;;;;;;;0.15;54.21;102215.97;5052260;28;20183;-82
2022/01/24 03:28:53;;;;;;;23.13;10.47;;;;;;;0.16;54.29;102220.34;5051827;28;20647;-81
2022/01/24 03:31:19;;;;;;;26.07;10.73;;;;;;;0.14;54.18;102230.19;5051266;28;20226;-80
2022/01/24 03:33:45;;;;;;;27.27;10.73;;;;;;;-0.25;54.92;102171.94;5050245;28;20238;-81
2022/01/24 03:36:10;;;;;;;20.30;10.13;;;;;;;0.12;55.04;102225.56;5052265;28;20262;-83
2022/01/24 03:38:36;;;;;;;22.43;11.83;;;;;;;0.16;54.72;102228.84;5051916;28;20187;-82
2022/01/24 03:41:02;;;;;;;24.27;10.13;;;;;;;0.22;54.13;102234.84;5051787;28;20263;-80
2022/01/24 03:43:28;;;;;;;26.57;11.40;;;;;;;0.20;55.03;102238.69;5051618;28;20179;-81
2022/01/24 03:48:47;;;;;;;35.43;16.97;;;;;;;0.17;55.36;102238.22;5051929;28;20168;-81
2022/01/24 03:51:14;;;;;;;24.03;12.40;;;;;;;0.18;54.84;102247.63;5052641;28;20537;-80
2022/01/24 03:53:41;;;;;;;16.77;8.50;;;;;;;0.07;54.43;102245.03;5051058;28;20217;-83
2022/01/24 03:56:06;;;;;;;18.20;9.07;;;;;;;-0.10;54.42;102238.94;5052665;28;20206;-83
2022/01/24 03:58:33;;;;;;;14.77;8.90;;;;;;;-0.10;53.54;102238.94;5053070;28;20583;-81
2022/01/24 04:00:59;;;;;;;18.20;8.30;;;;;;;-0.51;53.76;102188.91;5051673;28;20537;-82
2022/01/24 04:03:25;;;;;;;16.70;8.73;;;;;;;-0.09;53.41;102259.34;5051978;28;20259;-82
2022/01/24 04:05:51;;;;;;;15.20;8.63;;;;;;;-0.03;53.56;102257.78;5052827;28;20671;-81
2022/01/24 04:08:17;;;;;;;15.60;8.93;;;;;;;-0.17;53.55;102247.13;5054643;28;20207;-82
2022/01/24 04:10:46;;;;;;;15.23;8.17;;;;;;;-0.09;53.27;102271.03;5055618;28;20172;-84
2022/01/24 04:16:53;;;;;;;112.50;46.17;;;;;;;-0.10;54.37;102279.25;5055464;28;20175;-80
2022/01/24 04:21:29;;;;;;;14.10;8.40;;;;;;;0.02;53.70;102286.22;5068202;28;20252;-81
2022/01/24 04:24:05;;;;;;;14.17;7.57;;;;;;;0.04;53.83;102283.97;5065219;28;20174;-82
2022/01/24 04:26:32;;;;;;;17.07;8.70;;;;;;;-0.40;54.31;102207.31;5063932;28;20159;-82
2022/01/24 04:28:58;;;;;;;14.40;8.73;;;;;;;-0.10;53.77;102260.00;5065065;28;20195;-83
2022/01/24 04:31:25;;;;;;;17.17;8.13;;;;;;;0.10;53.45;102289.97;5061826;28;20171;-81
2022/01/24 04:33:51;;;;;;;24.13;11.23;;;;;;;0.00;53.23;102292.66;5062875;28;20203;-82
2022/01/24 04:36:17;;;;;;;32.77;15.60;;;;;;;-0.13;53.10;102282.19;5067194;28;20171;-82
2022/01/24 04:38:44;;;;;;;15.00;8.83;;;;;;;-0.29;53.79;102255.25;5063711;28;20171;-81
2022/01/24 04:41:20;;;;;;;18.13;8.73;;;;;;;-0.65;54.20;102220.13;5065402;28;20175;-80
2022/01/24 04:46:42;;;;;;;14.40;8.60;;;;;;;-0.92;54.63;102194.91;5056357;28;20180;-81
2022/01/24 04:54:38;;;;;;;18.97;10.10;;;;;;;-0.30;54.28;102314.81;5054252;28;20290;-82
2022/01/24 04:56:59;;;;;;;16.10;9.53;;;;;;;-0.45;54.79;102309.81;5056400;28;20262;-83
2022/01/24 04:59:25;;;;;;;13.60;8.73;;;;;;;-0.33;54.42;102326.91;5058106;28;20194;-84
2022/01/24 05:01:51;;;;;;;16.07;10.80;;;;;;;-0.30;54.89;102329.91;5055449;28;20180;-82
2022/01/24 05:04:16;;;;;;;17.57;8.80;;;;;;;-0.22;54.85;102328.59;5055557;28;20178;-80
2022/01/24 05:06:42;;;;;;;17.30;9.17;;;;;;;-0.37;54.76;102303.50;5037041;28;20175;-84
2022/01/24 05:09:08;;;;;;;18.67;10.13;;;;;;;-0.22;54.90;102342.81;5054454;28;20203;-80
2022/01/24 05:11:43;;;;;;;15.30;9.00;;;;;;;-0.37;54.48;102288.41;5055463;28;20195;-81
2022/01/24 05:24:46;;;;;;;30.03;11.73;;;;;;;0.18;54.89;102355.09;5053430;28;20175;-79
2022/01/24 05:27:12;;;;;;;26.53;11.33;;;;;;;0.06;54.71;102327.94;5053478;28;20559;-82
2022/01/24 05:29:38;;;;;;;25.80;11.03;;;;;;;0.27;54.90;102350.59;5053834;28;20209;-80
2022/01/24 05:32:05;;;;;;;29.27;10.90;;;;;;;-0.61;54.12;102214.91;5054822;28;20167;-84
2022/01/24 05:34:31;;;;;;;23.37;10.40;;;;;;;0.27;53.71;102360.69;5051632;28;20774;-80
2022/01/24 05:36:56;;;;;;;21.93;9.47;;;;;;;0.19;54.09;102350.31;5053565;28;20269;-77
2022/01/24 05:39:22;;;;;;;26.17;10.57;;;;;;;0.38;58.60;102360.78;5052918;28;20236;-76
2022/01/24 05:41:48;;;;;;;22.27;10.83;;;;;;;0.60;60.94;102370.13;5052840;28;20186;-76
2022/01/24 05:44:14;;;;;;;25.50;11.17;;;;;;;0.80;58.64;102364.06;5052842;28;20190;-77
2022/01/24 05:46:39;;;;;;;19.30;10.07;;;;;;;1.00;60.43;102374.75;5052660;28;20187;-76
2022/01/24 05:49:05;;;;;;;17.70;10.67;;;;;;;1.02;60.51;102352.25;5052938;28;20183;-76
2022/01/24 05:51:30;;;;;;;19.83;11.23;;;;;;;1.17;59.98;102381.50;5051318;28;20183;-78
2022/01/24 05:53:57;;;;;;;18.37;10.83;;;;;;;1.21;59.11;102368.66;5052305;28;20265;-77
2022/01/24 05:56:22;;;;;;;21.13;10.60;;;;;;;1.33;60.65;102380.66;5052717;28;20182;-79
2022/01/24 05:58:48;;;;;;;20.90;11.17;;;;;;;1.31;56.96;102380.44;5052367;28;20175;-77
2022/01/24 06:01:14;;;;;;;18.37;11.23;;;;;;;1.39;55.63;102386.66;5052317;28;20183;-77
2022/01/24 06:03:40;;;;;;;19.63;10.47;;;;;;;1.37;57.50;102381.38;5053232;28;20175;-77
2022/01/24 06:06:08;;;;;;;22.23;10.90;;;;;;;1.24;61.91;102343.88;5051231;28;20178;-77
2022/01/24 06:08:33;;;;;;;15.80;9.83;;;;;;;1.45;58.75;102366.47;5052086;28;20178;-77
2022/01/24 06:10:59;;;;;;;17.57;10.07;;;;;;;1.48;60.64;102374.50;5052004;28;20274;-76
2022/01/24 06:13:25;;;;;;;16.90;11.20;;;;;;;1.60;61.39;102391.56;5051661;28;20223;-78
2022/01/24 06:15:51;;;;;;;17.40;10.77;;;;;;;1.61;59.54;102400.97;5052115;28;20818;-77
2022/01/24 06:18:17;;;;;;;20.13;10.83;;;;;;;1.51;57.09;102387.63;5052599;28;20410;-80
2022/01/24 06:20:44;;;;;;;19.50;10.93;;;;;;;1.33;55.86;102380.66;5052967;28;20172;-79
2022/01/24 06:23:16;;;;;;;18.60;9.17;;;;;;;1.20;55.45;102395.50;5052564;28;20182;-81
2022/01/24 06:25:43;;;;;;;17.97;10.43;;;;;;;0.68;55.88;102340.34;5052519;28;20278;-81
2022/01/24 06:28:08;;;;;;;18.77;10.20;;;;;;;0.89;56.62;102407.47;5052460;28;20168;-80
2022/01/24 06:30:34;;;;;;;19.93;11.07;;;;;;;0.78;57.18;102420.00;5052235;28;20225;-81
2022/01/24 06:33:00;;;;;;;20.47;10.77;;;;;;;0.10;57.60;102315.19;5052710;28;20281;-80
2022/01/24 06:35:26;;;;;;;17.30;9.73;;;;;;;0.52;58.39;102399.19;5052316;28;20171;-81
2022/01/24 06:37:52;;;;;;;15.93;9.53;;;;;;;0.35;58.73;102396.53;5051807;28;20255;-79
2022/01/24 06:40:18;;;;;;;19.47;11.27;;;;;;;0.40;59.15;102412.38;5052113;28;20195;-80
2022/01/24 06:42:43;;;;;;;21.77;10.83;;;;;;;0.25;59.37;102422.53;5053730;28;20171;-80
2022/01/24 06:45:09;;;;;;;18.60;10.77;;;;;;;-0.05;60.61;102382.63;5053394;28;20201;-79
2022/01/24 06:47:35;;;;;;;20.33;11.50;;;;;;;0.04;60.71;102418.47;5052437;28;20186;-81
2022/01/24 06:50:01;;;;;;;20.57;11.37;;;;;;;0.10;60.77;102434.56;5054101;28;20621;-80
2022/01/24 06:52:27;;;;;;;26.00;12.87;;;;;;;-0.06;61.23;102415.16;5055002;28;20171;-79
2022/01/24 06:54:52;;;;;;;26.23;12.77;;;;;;;0.07;61.52;102436.59;5053352;28;20725;-82
2022/01/24 06:57:18;;;;;;;26.83;11.43;;;;;;;0.10;61.25;102433.66;5054480;28;20175;-81
2022/01/24 06:59:45;;;;;;;20.13;11.40;;;;;;;0.12;61.78;102447.41;5057042;28;20171;-79
2022/01/24 07:02:12;;;;;;;19.97;11.50;;;;;;;0.05;61.98;102426.94;5064850;28;20175;-80
2022/01/24 07:04:39;;;;;;;22.47;12.27;;;;;;;0.14;61.62;102441.94;5068247;28;20189;-81
2022/01/24 07:07:09;;;;;;;20.40;11.23;;;;;;;0.08;62.25;102423.31;5071370;28;20176;-79
2022/01/24 07:09:36;;;;;;;24.57;12.20;;;;;;;0.09;62.37;102435.22;5073534;28;20155;-79
2022/01/24 07:12:02;;;;;;;20.77;10.50;;;;;;;0.09;62.12;102435.22;5076198;28;20179;-79
2022/01/24 07:14:27;;;;;;;21.27;11.70;;;;;;;-0.07;61.72;102411.69;5072496;28;20223;-80
2022/01/24 07:19:31;;;;;;;23.00;11.63;;;;;;;-0.05;61.91;102417.91;5066557;28;20179;-79
2022/01/24 07:22:01;;;;;;;22.53;12.07;;;;;;;-0.09;62.70;102418.09;5074094;28;20162;-80
2022/01/24 07:24:27;;;;;;;24.17;13.40;;;;;;;0.12;63.57;102450.84;5068639;28;20195;-79
2022/01/24 07:26:53;;;;;;;24.40;12.13;;;;;;;-0.41;63.75;102362.53;5072029;28;20243;-78
2022/01/24 07:29:19;;;;;;;22.13;12.93;;;;;;;-0.07;64.32;102416.72;5054784;28;20199;-79
2022/01/24 07:31:46;;;;;;;25.37;15.57;;;;;;;0.29;64.66;102471.19;5052690;28;20250;-81
2022/01/24 07:34:13;;;;;;;20.07;12.60;;;;;;;0.08;64.89;102443.47;5052347;28;20211;-79
2022/01/24 07:36:38;;;;;;;26.37;13.97;;;;;;;0.21;65.40;102456.44;5052253;28;20548;-79
2022/01/24 07:39:04;;;;;;;22.47;12.70;;;;;;;0.34;66.18;102474.44;5051583;28;20178;-80
2022/01/24 07:41:33;;;;;;;23.70;13.60;;;;;;;0.33;66.73;102478.56;5051673;28;20182;-81
2022/01/24 07:43:59;;;;;;;22.83;12.33;;;;;;;0.14;66.48;102444.44;5051526;28;20171;-79
2022/01/24 07:46:25;;;;;;;31.10;16.80;;;;;;;0.20;67.33;102464.69;5051169;28;20562;-80
2022/01/24 07:48:51;;;;;;;24.13;13.20;;;;;;;0.30;67.06;102484.72;5051365;28;20186;-80
2022/01/24 07:51:17;;;;;;;23.03;12.83;;;;;;;0.22;66.98;102469.31;5054255;28;20183;-79
2022/01/24 07:53:43;;;;;;;21.80;11.47;;;;;;;0.27;67.51;102484.22;5055074;28;20686;-80
2022/01/24 07:56:10;;;;;;;21.63;12.23;;;;;;;0.28;67.28;102492.06;5055055;28;20187;-80
2022/01/24 07:58:36;;;;;;;22.43;13.00;;;;;;;0.16;67.33;102464.88;5055132;28;20277;-81
2022/01/24 08:01:02;;;;;;;22.60;13.07;;;;;;;0.23;67.73;102477.78;5055353;28;20203;-80
2022/01/24 08:03:28;;;;;;;28.30;13.60;;;;;;;0.05;67.33;102452.16;5054935;28;20639;-81
2022/01/24 08:05:54;;;;;;;22.50;12.70;;;;;;;0.31;67.61;102492.56;5054951;28;20182;-80
2022/01/24 08:08:19;;;;;;;22.23;12.67;;;;;;;0.34;67.08;102489.56;5055073;28;20183;-80
2022/01/24 08:10:45;;;;;;;22.73;11.90;;;;;;;0.31;66.96;102479.00;5055069;28;20296;-81
2022/01/24 08:13:12;;;;;;;23.30;12.27;;;;;;;0.47;66.01;102490.88;5054522;28;20714;-80
2022/01/24 08:15:38;;;;;;;23.13;12.27;;;;;;;0.48;65.45;102485.13;5054850;28;20176;-80
2022/01/24 08:18:04;;;;;;;22.37;11.60;;;;;;;0.19;64.98;102445.19;5054972;28;20175;-79
2022/01/24 08:20:29;;;;;;;24.57;12.80;;;;;;;0.41;64.48;102502.50;5054466;28;20175;-80
2022/01/24 08:22:55;;;;;;;22.80;11.30;;;;;;;0.48;63.85;102506.94;5055045;28;20180;-80
2022/01/24 08:25:20;;;;;;;23.30;12.07;;;;;;;0.46;63.05;102496.56;5054887;28;20179;-80
2022/01/24 08:27:47;;;;;;;23.27;12.87;;;;;;;0.40;62.81;102485.50;5054670;28;20229;-80
2022/01/24 08:30:16;;;;;;;20.63;12.43;;;;;;;0.47;63.19;102511.06;5054708;28;20262;-80
2022/01/24 08:32:41;;;;;;;27.27;13.20;;;;;;;0.63;63.09;102512.81;5054231;28;20172;-79
2022/01/24 08:35:08;;;;;;;25.23;12.53;;;;;;;0.67;62.87;102514.22;5054242;28;20714;-79
2022/01/24 08:37:35;;;;;;;20.43;11.57;;;;;;;0.75;61.53;102516.38;5054097;28;20211;-80
2022/01/24 08:40:00;;;;;;;22.53;11.70;;;;;;;0.77;61.54;102521.63;5054253;28;20183;-81
2022/01/24 08:42:52;;;;;;;23.97;13.97;;;;;;;0.80;61.40;102522.13;5053991;28;20179;-79
2022/01/24 08:48:01;;;;;;;36.10;15.40;;;;;;;0.89;60.84;102513.50;5054322;28;20225;-80
2022/01/24 08:50:27;;;;;;;23.23;11.40;;;;;;;1.09;60.55;102535.25;5054535;28;20187;-81
2022/01/24 08:52:59;;;;;;;22.87;12.93;;;;;;;0.99;60.54;102503.25;5054075;28;20199;-81
2022/01/24 08:55:28;;;;;;;30.33;15.57;;;;;;;1.17;60.43;102538.97;5054087;28;20199;-82
2022/01/24 08:57:55;;;;;;;23.73;12.77;;;;;;;1.10;59.96;102526.97;5054005;28;20266;-80
2022/01/24 09:00:20;;;;;;;20.10;11.43;;;;;;;1.14;60.06;102534.34;5054291;28;20179;-80
2022/01/24 09:02:46;;;;;;;21.53;12.43;;;;;;;0.91;60.08;102485.28;5053052;28;20643;-78
2022/01/24 09:05:12;;;;;;;25.63;13.73;;;;;;;1.18;59.74;102524.72;5053871;28;20183;-81
2022/01/24 09:07:37;;;;;;;20.30;11.50;;;;;;;0.75;58.83;102460.84;5053538;28;20202;-81
2022/01/24 09:10:05;;;;;;;19.57;11.03;;;;;;;1.16;58.06;102527.03;5053903;28;20179;-80
2022/01/24 09:12:31;;;;;;;16.47;9.30;;;;;;;1.15;56.60;102525.16;5053848;28;20262;-79
2022/01/24 09:14:56;;;;;;;12.50;7.73;;;;;;;1.12;55.30;102515.53;5053956;28;20231;-80
2022/01/24 09:17:22;;;;;;;28.30;11.80;;;;;;;1.17;55.38;102535.53;5053358;28;20639;-79
2022/01/24 09:19:47;;;;;;;20.77;11.60;;;;;;;1.20;55.00;102543.59;5053494;28;20179;-79
2022/01/24 09:22:13;;;;;;;16.33;8.40;;;;;;;1.10;53.96;102521.94;5053576;28;20194;-79
2022/01/24 09:24:39;;;;;;;15.30;8.80;;;;;;;1.26;53.62;102542.03;5053701;28;20182;-80
2022/01/24 09:27:04;;;;;;;16.00;9.13;;;;;;;1.22;53.34;102530.53;5053552;28;20666;-80
2022/01/24 09:29:30;;;;;;;15.43;9.17;;;;;;;1.19;53.10;102511.44;5054008;28;20244;-79
2022/01/24 09:31:56;;;;;;;13.97;8.50;;;;;;;1.17;53.23;102516.22;5053794;28;20203;-79
2022/01/24 09:34:22;;;;;;;14.80;8.23;;;;;;;1.41;53.43;102544.44;5053509;28;20276;-79
2022/01/24 09:36:48;;;;;;;19.73;11.23;;;;;;;1.41;54.06;102551.09;5053417;28;20179;-81
2022/01/24 09:39:15;;;;;;;20.67;11.27;;;;;;;1.40;53.53;102537.50;5053536;28;20262;-81
2022/01/24 09:41:41;;;;;;;23.13;12.43;;;;;;;1.18;52.83;102497.88;5054328;28;20179;-80
2022/01/24 09:44:06;;;;;;;34.60;17.67;;;;;;;1.45;53.33;102546.75;5056376;28;20297;-81
2022/01/24 09:46:35;;;;;;;29.67;15.33;;;;;;;1.49;53.23;102546.53;5053204;28;20225;-79
2022/01/24 09:49:01;;;;;;;24.20;13.40;;;;;;;1.49;53.39;102541.47;5054599;28;20179;-82
2022/01/24 09:51:27;;;;;;;21.37;9.87;;;;;;;1.56;52.53;102548.44;5053731;28;20535;-81
2022/01/24 09:53:53;;;;;;;17.93;9.23;;;;;;;1.54;52.25;102544.75;5053183;28;20215;-80
2022/01/24 09:56:19;;;;;;;17.87;9.37;;;;;;;1.57;52.35;102547.75;5053435;28;20186;-81
2022/01/24 09:58:45;;;;;;;21.90;12.40;;;;;;;1.54;52.67;102542.22;5052997;28;20597;-82
2022/01/24 10:01:13;;;;;;;17.73;10.90;;;;;;;1.31;52.97;102518.41;5052766;28;20183;-82
2022/01/24 10:03:38;;;;;;;19.37;10.33;;;;;;;1.43;52.71;102550.63;5054068;28;20237;-81
2022/01/24 10:06:04;;;;;;;19.17;10.43;;;;;;;1.37;52.50;102550.59;5055298;28;20187;-82
2022/01/24 10:08:31;;;;;;;30.17;16.63;;;;;;;1.31;52.57;102538.63;5054138;28;20257;-80
2022/01/24 10:11:04;;;;;;;37.33;17.60;;;;;;;1.42;52.71;102542.81;5056476;28;20171;-83
2022/01/24 10:16:31;;;;;;;21.70;11.13;;;;;;;1.33;52.52;102511.97;5056098;28;20178;-82
2022/01/24 10:19:19;;;;;;;24.20;13.57;;;;;;;1.35;52.43;102519.13;5057863;28;20163;-85
2022/01/24 10:21:51;;;;;;;19.60;10.40;;;;;;;1.39;52.80;102538.19;5057481;28;20163;-82
2022/01/24 10:24:41;;;;;;;17.17;10.53;;;;;;;1.49;52.78;102538.03;5056328;28;20179;-84
2022/01/24 10:27:07;;;;;;;21.60;11.60;;;;;;;1.60;52.83;102528.94;5055708;28;20171;-82
2022/01/24 10:29:32;;;;;;;20.87;11.63;;;;;;;1.18;52.84;102464.13;5055462;28;20245;-82
2022/01/24 10:31:58;;;;;;;19.83;10.43;;;;;;;1.60;51.72;102538.13;5056078;28;20175;-81
2022/01/24 10:34:34;;;;;;;16.47;9.67;;;;;;;1.63;51.18;102517.47;5056626;28;20206;-81
2022/01/24 10:37:00;;;;;;;18.93;10.47;;;;;;;1.81;51.29;102531.34;5055915;28;20263;-83
2022/01/24 10:42:52;;;;;;;17.83;10.63;;;;;;;1.97;50.63;102529.56;5055921;28;20181;-81
2022/01/24 10:45:22;;;;;;;16.77;8.93;;;;;;;1.70;48.84;102493.38;5057146;28;20185;-80
2022/01/24 10:47:52;;;;;;;18.57;9.77;;;;;;;1.77;48.07;102501.19;5054409;28;20233;-80
2022/01/24 10:50:29;;;;;;;19.47;9.63;;;;;;;1.90;48.05;102523.31;5056190;28;20167;-83
2022/01/24 10:52:56;;;;;;;18.73;10.03;;;;;;;2.02;48.06;102531.19;5054540;28;20175;-82
2022/01/24 10:55:25;;;;;;;17.53;8.50;;;;;;;1.70;47.23;102472.22;5054493;28;20172;-82
2022/01/24 10:57:59;;;;;;;16.80;8.87;;;;;;;2.03;47.20;102530.53;5056589;28;20182;-84
2022/01/24 11:00:28;;;;;;;17.70;9.27;;;;;;;2.06;47.60;102530.06;5061118;28;20190;-82
2022/01/24 11:03:01;;;;;;;22.33;11.47;;;;;;;2.14;48.16;102528.72;5056122;28;20171;-82
2022/01/24 11:05:34;;;;;;;15.60;9.23;;;;;;;2.07;48.00;102530.28;5059308;28;20167;-82
2022/01/24 11:08:00;;;;;;;17.80;9.70;;;;;;;1.85;48.16;102513.44;5060747;28;20235;-82
2022/01/24 11:10:29;;;;;;;17.03;9.20;;;;;;;1.74;48.17;102509.91;5061080;28;20233;-80
2022/01/24 11:12:54;;;;;;;14.03;7.93;;;;;;;1.81;47.34;102502.63;5056074;28;20269;-83
2022/01/24 11:15:22;;;;;;;19.33;9.10;;;;;;;1.89;47.28;102512.28;5055405;28;20183;-82
2022/01/24 11:17:47;;;;;;;17.03;9.70;;;;;;;2.01;47.07;102516.72;5059242;28;20198;-83
2022/01/24 11:20:16;;;;;;;18.07;8.67;;;;;;;1.52;47.48;102433.31;5064070;28;20183;-84
2022/01/24 11:22:46;;;;;;;18.13;9.50;;;;;;;2.07;47.52;102524.31;5064326;28;20171;-79
2022/01/24 11:25:14;;;;;;;13.00;8.50;;;;;;;1.52;47.03;102419.75;5070275;28;20270;-82
2022/01/24 11:27:43;;;;;;;13.23;7.00;;;;;;;2.05;46.65;102505.44;5068595;28;20183;-83
2022/01/24 11:30:13;;;;;;;20.20;8.10;;;;;;;2.20;46.64;102519.53;5063947;28;20191;-79
2022/01/24 11:33:01;;;;;;;16.87;8.07;;;;;;;2.26;46.49;102534.03;5059621;28;20611;-79
2022/01/24 11:35:44;;;;;;;38.03;13.30;;;;;;;2.29;46.74;102537.03;5063888;28;20168;-79
2022/01/24 11:38:26;;;;;;;33.03;11.33;;;;;;;2.29;46.12;102539.56;5063748;28;20206;-82
2022/01/24 11:40:59;;;;;;;30.60;12.57;;;;;;;2.22;46.27;102531.75;5061317;28;20772;-81
2022/01/24 11:43:36;;;;;;;18.87;10.00;;;;;;;2.16;45.83;102529.88;5064015;28;20204;-82
2022/01/24 11:46:07;;;;;;;19.37;9.13;;;;;;;2.19;46.38;102550.59;5063330;28;20391;-81
2022/01/24 11:48:35;;;;;;;15.37;8.03;;;;;;;2.17;46.62;102541.81;5056931;28;20246;-81
2022/01/24 11:51:12;;;;;;;18.93;8.67;;;;;;;2.12;46.80;102532.59;5054666;28;20179;-80
2022/01/24 11:53:45;;;;;;;15.13;8.03;;;;;;;2.18;46.34;102524.38;5057801;28;20238;-80
2022/01/24 11:56:31;;;;;;;12.20;8.00;;;;;;;2.21;46.60;102529.91;5053444;28;20217;-82
2022/01/24 11:59:19;;;;;;;16.30;9.03;;;;;;;2.14;46.71;102532.16;5052363;28;20526;-82
2022/01/24 12:01:47;;;;;;;18.33;8.57;;;;;;;2.16;46.85;102530.78;5058251;28;20179;-81
2022/01/24 12:04:14;;;;;;;36.10;12.07;;;;;;;2.22;45.88;102521.63;5053230;28;20546;-81
2022/01/24 12:07:17;;;;;;;31.77;12.17;;;;;;;2.28;45.26;102529.22;5052498;28;20179;-85
2022/01/24 12:09:42;;;;;;;31.97;11.07;;;;;;;2.28;45.48;102511.53;5052326;28;20206;-82
2022/01/24 12:12:36;;;;;;;19.87;8.97;;;;;;;2.43;45.47;102528.09;5052289;28;20278;-82
2022/01/24 12:15:04;;;;;;;17.13;8.97;;;;;;;2.46;45.80;102531.09;5052017;28;20199;-81
2022/01/24 12:17:48;;;;;;;13.50;8.13;;;;;;;2.51;45.51;102541.22;5051360;28;20197;-81
2022/01/24 12:20:31;;;;;;;14.17;8.63;;;;;;;2.58;45.53;102520.31;5051514;28;20199;-80
2022/01/24 12:22:59;;;;;;;15.70;8.60;;;;;;;2.61;45.40;102513.19;5053777;28;20237;-78
2022/01/24 12:25:57;;;;;;;16.67;8.00;;;;;;;2.66;44.91;102511.38;5051936;28;20172;-80
2022/01/24 12:28:43;;;;;;;18.73;8.53;;;;;;;2.59;44.95;102491.81;5051011;28;20194;-79
2022/01/24 12:31:17;;;;;;;16.73;8.30;;;;;;;2.66;45.59;102494.56;5050275;28;20716;-79
2022/01/24 12:33:55;;;;;;;22.20;8.97;;;;;;;2.72;45.25;102512.28;5051145;28;20576;-80
2022/01/24 12:36:39;;;;;;;21.20;9.47;;;;;;;2.76;45.55;102522.19;5051565;28;20179;-79
2022/01/24 12:39:21;;;;;;;21.33;9.90;;;;;;;2.42;44.30;102460.47;5055763;28;20178;-78
2022/01/24 12:41:57;;;;;;;22.83;9.30;;;;;;;2.57;43.97;102483.03;5056351;28;20202;-79
2022/01/24 12:47:26;;;;;;;29.10;11.67;;;;;;;2.73;44.50;102521.72;5055515;28;20159;-78
2022/01/24 12:49:52;;;;;;;24.80;10.83;;;;;;;2.71;44.66;102520.56;5055686;28;20274;-81
2022/01/24 12:52:29;;;;;;;23.80;10.63;;;;;;;2.66;44.16;102506.31;5055531;28;20171;-79
2022/01/24 12:54:58;;;;;;;26.63;10.63;;;;;;;2.73;44.15;102524.25;5056927;28;20218;-80
2022/01/24 12:57:29;;;;;;;19.47;9.03;;;;;;;2.71;44.09;102518.03;5054234;28;20616;-78
2022/01/24 13:00:01;;;;;;;15.67;8.70;;;;;;;2.70;44.63;102523.78;5054601;28;20177;-78
2022/01/24 13:02:29;;;;;;;17.50;9.10;;;;;;;2.54;44.75;102491.09;5054611;28;20168;-78
2022/01/24 13:05:03;;;;;;;17.33;7.83;;;;;;;2.75;44.32;102518.72;5054342;28;20175;-78
2022/01/24 13:07:31;;;;;;;11.90;7.50;;;;;;;2.62;44.13;102504.00;5054280;28;20258;-79
2022/01/24 13:10:07;;;;;;;19.40;9.80;;;;;;;2.50;43.90;102486.25;5054493;28;20186;-78
2022/01/24 13:12:33;;;;;;;19.80;9.73;;;;;;;2.68;44.36;102527.69;5054103;28;20222;-80
2022/01/24 13:15:03;;;;;;;28.17;9.57;;;;;;;2.47;44.23;102505.13;5054682;28;20348;-79
2022/01/24 13:23:01;;;;;;;17.10;8.73;;;;;;;2.51;43.98;102521.00;5053782;28;20430;-79
2022/01/24 13:25:29;;;;;;;20.00;8.60;;;;;;;2.62;44.02;102542.88;5053714;28;20624;-79
2022/01/24 13:27:57;;;;;;;15.27;7.37;;;;;;;2.66;44.00;102554.41;5053879;28;20183;-79
2022/01/24 13:30:27;;;;;;;15.37;8.40;;;;;;;2.69;43.95;102557.38;5060932;28;20207;-79
2022/01/24 13:32:57;;;;;;;14.07;8.47;;;;;;;2.67;44.13;102548.63;5061046;28;20184;-79
2022/01/24 13:35:25;;;;;;;15.90;8.53;;;;;;;2.65;44.31;102545.88;5066338;28;20187;-80